createdAt,value
2018-11-28T00:00:06.392Z,12.80
2018-11-28T00:01:06.381Z,13.40
2018-11-28T00:02:06.371Z,13.00
2018-11-28T00:03:06.353Z,12.80
2018-11-28T00:04:06.357Z,11.00
2018-11-28T00:05:06.330Z,9.40
2018-11-28T00:06:06.323Z,10.10
2018-11-28T00:07:06.318Z,8.50
2018-11-28T00:08:06.300Z,9.30
2018-11-28T00:09:06.301Z,9.40
2018-11-28T00:10:06.277Z,10.30
2018-11-28T00:11:06.270Z,10.90
2018-11-28T00:12:06.257Z,10.90
2018-11-28T00:13:06.257Z,10.40
2018-11-28T00:14:06.254Z,10.70
2018-11-28T00:15:06.224Z,10.60
2018-11-28T00:16:06.214Z,10.80
2018-11-28T00:17:06.201Z,10.60
2018-11-28T00:18:06.190Z,10.00
2018-11-28T00:19:06.212Z,10.10
2018-11-28T00:20:06.171Z,9.40
2018-11-28T00:21:06.158Z,9.30
2018-11-28T00:22:06.153Z,8.60
2018-11-28T00:23:06.139Z,8.60
2018-11-28T00:24:06.128Z,9.10
2018-11-28T00:25:06.130Z,9.50
2018-11-28T00:26:06.107Z,9.60
2018-11-28T00:27:06.099Z,18.20
2018-11-28T00:28:06.089Z,40.30
2018-11-28T00:29:06.073Z,12.40
2018-11-28T00:30:06.079Z,9.20
2018-11-28T00:31:06.059Z,9.70
2018-11-28T00:32:06.044Z,9.60
2018-11-28T00:33:06.033Z,8.20
2018-11-28T00:34:06.021Z,7.90
2018-11-28T00:35:06.024Z,8.70
2018-11-28T00:36:05.999Z,8.40
2018-11-28T00:37:05.993Z,8.80
2018-11-28T00:38:05.983Z,9.00
2018-11-28T00:39:05.969Z,9.10
2018-11-28T00:40:05.974Z,8.50
2018-11-28T00:41:05.949Z,8.70
2018-11-28T00:42:05.942Z,8.30
2018-11-28T00:43:05.940Z,8.50
2018-11-28T00:44:05.916Z,8.20
2018-11-28T00:45:05.914Z,8.60
2018-11-28T00:46:05.895Z,8.80
2018-11-28T00:47:05.884Z,8.80
2018-11-28T00:48:05.878Z,7.10
2018-11-28T00:49:05.863Z,7.40
2018-11-28T00:50:05.903Z,7.80
2018-11-28T00:51:05.853Z,7.00
2018-11-28T00:52:05.831Z,7.50
2018-11-28T00:53:05.820Z,7.30
2018-11-28T00:54:05.813Z,8.20
2018-11-28T00:55:05.796Z,7.50
2018-11-28T00:56:05.804Z,8.70
2018-11-28T00:57:05.785Z,10.30
2018-11-28T00:58:05.767Z,10.40
2018-11-28T00:59:05.755Z,9.90
2018-11-28T01:00:05.744Z,10.40
2018-11-28T01:01:05.752Z,9.90
2018-11-28T01:02:05.727Z,9.60
2018-11-28T01:03:05.715Z,9.50
2018-11-28T01:04:05.702Z,10.40
2018-11-28T01:05:05.691Z,10.60
2018-11-28T01:06:05.697Z,11.50
2018-11-28T01:07:05.673Z,13.60
2018-11-28T01:08:05.661Z,13.70
2018-11-28T01:09:05.648Z,13.00
2018-11-28T01:10:05.638Z,12.90
2018-11-28T01:11:05.642Z,14.30
2018-11-28T01:12:05.623Z,14.50
2018-11-28T01:13:05.606Z,14.50
2018-11-28T01:14:05.595Z,13.90
2018-11-28T01:15:05.588Z,14.10
2018-11-28T01:16:05.588Z,14.30
2018-11-28T01:17:05.565Z,15.10
2018-11-28T01:18:05.562Z,15.00
2018-11-28T01:19:05.543Z,14.40
2018-11-28T01:20:05.532Z,14.40
2018-11-28T01:21:05.537Z,14.50
2018-11-28T01:22:05.511Z,14.50
2018-11-28T01:23:05.522Z,14.70
2018-11-28T01:24:05.491Z,14.40
2018-11-28T01:25:05.481Z,14.80
2018-11-28T01:26:05.479Z,14.60
2018-11-28T01:27:05.651Z,14.50
2018-11-28T01:28:05.452Z,14.00
2018-11-28T01:29:05.439Z,14.70
2018-11-28T01:30:05.427Z,15.40
2018-11-28T01:31:05.427Z,14.50
2018-11-28T01:32:05.407Z,15.00
2018-11-28T01:33:05.393Z,14.80
2018-11-28T01:34:05.384Z,14.10
2018-11-28T01:35:05.375Z,15.00
2018-11-28T01:36:05.379Z,14.70
2018-11-28T01:37:05.353Z,14.30
2018-11-28T01:38:05.346Z,14.30
2018-11-28T01:39:05.329Z,14.10
2018-11-28T01:40:05.321Z,14.70
2018-11-28T01:41:05.321Z,14.50
2018-11-28T01:42:05.304Z,14.30
2018-11-28T01:43:05.298Z,14.80
2018-11-28T01:44:05.279Z,14.30
2018-11-28T01:45:05.268Z,14.60
2018-11-28T01:46:05.274Z,14.60
2018-11-28T01:47:05.248Z,15.00
2018-11-28T01:48:05.242Z,15.10
2018-11-28T01:49:05.229Z,15.30
2018-11-28T01:50:05.215Z,14.20
2018-11-28T01:51:05.220Z,14.90
2018-11-28T01:52:05.196Z,14.60
2018-11-28T01:53:05.190Z,13.90
2018-11-28T01:54:05.173Z,13.90
2018-11-28T01:55:05.167Z,14.80
2018-11-28T01:56:05.164Z,15.20
2018-11-28T01:57:05.142Z,14.60
2018-11-28T01:58:05.133Z,14.70
2018-11-28T01:59:05.128Z,15.70
2018-11-28T02:00:05.109Z,15.60
2018-11-28T02:01:05.109Z,14.60
2018-11-28T02:02:05.091Z,15.80
2018-11-28T02:03:05.085Z,15.90
2018-11-28T02:04:05.081Z,16.40
2018-11-28T02:05:05.065Z,16.40
2018-11-28T02:06:05.078Z,16.30
2018-11-28T02:07:05.039Z,17.30
2018-11-28T02:08:05.027Z,16.70
2018-11-28T02:09:05.020Z,16.50
2018-11-28T02:10:05.009Z,17.20
2018-11-28T02:11:05.008Z,16.90
2018-11-28T02:12:04.996Z,16.60
2018-11-28T02:13:04.974Z,16.90
2018-11-28T02:14:04.980Z,16.10
2018-11-28T02:15:04.961Z,16.50
2018-11-28T02:16:04.947Z,16.30
2018-11-28T02:17:04.950Z,16.30
2018-11-28T02:18:04.926Z,16.30
2018-11-28T02:19:04.913Z,16.10
2018-11-28T02:20:04.902Z,16.70
2018-11-28T02:21:04.902Z,16.40
2018-11-28T02:22:04.893Z,16.00
2018-11-28T02:23:04.868Z,17.10
2018-11-28T02:24:04.859Z,17.00
2018-11-28T02:25:04.849Z,16.70
2018-11-28T02:26:04.839Z,17.00
2018-11-28T02:27:04.859Z,16.90
2018-11-28T02:28:04.821Z,16.70
2018-11-28T02:29:04.807Z,16.50
2018-11-28T02:30:04.795Z,16.80
2018-11-28T02:31:04.786Z,16.50
2018-11-28T02:32:04.799Z,17.00
2018-11-28T02:33:04.766Z,16.00
2018-11-28T02:34:04.754Z,17.20
2018-11-28T02:35:04.742Z,16.40
2018-11-28T02:36:04.732Z,16.50
2018-11-28T02:37:04.739Z,16.30
2018-11-28T02:38:04.717Z,16.70
2018-11-28T02:39:05.338Z,16.60
2018-11-28T02:40:04.702Z,17.50
2018-11-28T02:41:04.682Z,17.20
2018-11-28T02:42:04.687Z,17.10
2018-11-28T02:43:04.659Z,16.50
2018-11-28T02:44:04.657Z,17.40
2018-11-28T02:45:04.640Z,17.20
2018-11-28T02:46:04.642Z,16.70
2018-11-28T02:47:04.644Z,16.60
2018-11-28T02:48:04.607Z,16.30
2018-11-28T02:49:04.599Z,17.20
2018-11-28T02:50:04.595Z,16.90
2018-11-28T02:51:04.582Z,16.50
2018-11-28T02:52:04.580Z,17.40
2018-11-28T02:53:04.556Z,17.30
2018-11-28T02:54:04.547Z,16.80
2018-11-28T02:55:04.536Z,17.60
2018-11-28T02:56:04.533Z,17.20
2018-11-28T02:57:04.527Z,17.00
2018-11-28T02:58:04.513Z,17.40
2018-11-28T02:59:04.494Z,17.50
2018-11-28T03:00:04.486Z,16.70
2018-11-28T03:01:04.473Z,17.70
2018-11-28T03:02:04.490Z,17.00
2018-11-28T03:03:04.450Z,16.90
2018-11-28T03:04:04.446Z,16.70
2018-11-28T03:05:04.431Z,17.20
2018-11-28T03:06:04.422Z,17.00
2018-11-28T03:07:04.422Z,17.00
2018-11-28T03:08:04.403Z,17.20
2018-11-28T03:09:04.391Z,17.00
2018-11-28T03:10:04.391Z,17.20
2018-11-28T03:11:04.368Z,17.20
2018-11-28T03:12:04.370Z,16.90
2018-11-28T03:13:04.351Z,17.50
2018-11-28T03:14:04.342Z,16.80
2018-11-28T03:15:04.328Z,16.90
2018-11-28T03:16:04.315Z,16.80
2018-11-28T03:17:04.333Z,16.80
2018-11-28T03:18:04.296Z,17.40
2018-11-28T03:19:04.286Z,16.10
2018-11-28T03:20:04.275Z,16.60
2018-11-28T03:21:04.267Z,16.00
2018-11-28T03:22:04.269Z,16.50
2018-11-28T03:23:04.241Z,16.40
2018-11-28T03:24:04.233Z,17.20
2018-11-28T03:25:04.224Z,17.00
2018-11-28T03:26:04.212Z,16.90
2018-11-28T03:27:04.214Z,17.40
2018-11-28T03:28:04.191Z,16.90
2018-11-28T03:29:04.190Z,16.90
2018-11-28T03:30:04.173Z,16.70
2018-11-28T03:31:04.165Z,16.80
2018-11-28T03:32:04.160Z,15.70
2018-11-28T03:33:04.152Z,16.90
2018-11-28T03:34:04.136Z,17.00
2018-11-28T03:35:04.115Z,16.90
2018-11-28T03:36:04.112Z,17.00
2018-11-28T03:37:04.201Z,16.60
2018-11-28T03:38:04.090Z,17.20
2018-11-28T03:39:04.083Z,17.40
2018-11-28T03:40:04.073Z,16.90
2018-11-28T03:41:04.105Z,17.50
2018-11-28T03:42:04.076Z,17.10
2018-11-28T03:43:04.042Z,16.90
2018-11-28T03:44:04.023Z,17.70
2018-11-28T03:45:04.027Z,18.80
2018-11-28T03:46:04.002Z,17.10
2018-11-28T03:47:03.994Z,17.00
2018-11-28T03:48:03.992Z,17.70
2018-11-28T03:49:03.977Z,17.20
2018-11-28T03:50:03.961Z,17.30
2018-11-28T03:51:03.951Z,17.00
2018-11-28T03:52:03.942Z,17.00
2018-11-28T03:53:03.944Z,16.60
2018-11-28T03:54:03.919Z,17.10
2018-11-28T03:55:03.909Z,17.10
2018-11-28T03:56:03.896Z,15.80
2018-11-28T03:57:03.889Z,16.20
2018-11-28T03:58:03.889Z,16.50
2018-11-28T03:59:03.869Z,16.70
2018-11-28T04:00:03.855Z,16.70
2018-11-28T04:01:03.848Z,16.30
2018-11-28T04:02:03.835Z,15.90
2018-11-28T04:03:03.843Z,15.60
2018-11-28T04:04:03.817Z,16.10
2018-11-28T04:05:03.803Z,17.40
2018-11-28T04:06:03.794Z,16.10
2018-11-28T04:07:03.831Z,15.90
2018-11-28T04:08:03.785Z,16.50
2018-11-28T04:09:03.762Z,16.00
2018-11-28T04:10:03.760Z,16.20
2018-11-28T04:11:03.739Z,15.40
2018-11-28T04:12:03.733Z,14.50
2018-11-28T04:13:03.735Z,14.80
2018-11-28T04:14:03.712Z,15.80
2018-11-28T04:15:03.700Z,14.70
2018-11-28T04:16:03.688Z,14.80
2018-11-28T04:17:03.678Z,15.60
2018-11-28T04:18:03.694Z,15.80
2018-11-28T04:19:03.662Z,15.00
2018-11-28T04:20:03.648Z,15.90
2018-11-28T04:21:03.636Z,17.50
2018-11-28T04:22:03.636Z,16.60
2018-11-28T04:23:03.628Z,16.80
2018-11-28T04:24:03.604Z,17.10
2018-11-28T04:25:03.594Z,16.60
2018-11-28T04:26:03.587Z,17.00
2018-11-28T04:27:03.574Z,15.90
2018-11-28T04:28:03.575Z,17.60
2018-11-28T04:29:03.552Z,17.40
2018-11-28T04:30:03.585Z,17.00
2018-11-28T04:31:03.544Z,17.30
2018-11-28T04:32:03.523Z,16.60
2018-11-28T04:33:03.524Z,17.20
2018-11-28T04:34:03.502Z,17.70
2018-11-28T04:35:03.497Z,17.70
2018-11-28T04:36:03.488Z,17.10
2018-11-28T04:37:03.472Z,18.40
2018-11-28T04:38:03.471Z,18.40
2018-11-28T04:39:03.460Z,18.10
2018-11-28T04:40:03.441Z,18.10
2018-11-28T04:41:03.431Z,17.40
2018-11-28T04:42:03.421Z,18.00
2018-11-28T04:43:03.431Z,19.30
2018-11-28T04:44:03.397Z,18.00
2018-11-28T04:45:03.392Z,17.90
2018-11-28T04:46:03.383Z,18.10
2018-11-28T04:47:03.370Z,17.80
2018-11-28T04:48:03.369Z,17.50
2018-11-28T04:49:03.345Z,18.50
2018-11-28T04:50:03.375Z,17.80
2018-11-28T04:51:03.339Z,17.60
2018-11-28T04:52:03.321Z,19.20
2018-11-28T04:53:03.327Z,18.60
2018-11-28T04:54:03.294Z,19.80
2018-11-28T04:55:03.301Z,19.30
2018-11-28T04:56:03.274Z,19.00
2018-11-28T04:57:03.264Z,19.60
2018-11-28T04:58:03.290Z,19.60
2018-11-28T04:59:03.243Z,19.60
2018-11-28T05:00:03.243Z,18.90
2018-11-28T05:01:03.218Z,19.40
2018-11-28T05:02:03.210Z,20.50
2018-11-28T05:03:03.267Z,19.70
2018-11-28T05:04:03.203Z,20.40
2018-11-28T05:05:03.179Z,20.90
2018-11-28T05:06:03.171Z,20.60
2018-11-28T05:07:03.167Z,20.90
2018-11-28T05:08:03.204Z,21.20
2018-11-28T05:09:03.149Z,22.20
2018-11-28T05:10:03.126Z,23.40
2018-11-28T05:11:03.117Z,23.20
2018-11-28T05:12:03.107Z,23.60
2018-11-28T05:13:03.116Z,23.80
2018-11-28T05:14:03.105Z,24.20
2018-11-28T05:15:03.073Z,24.10
2018-11-28T05:16:03.066Z,25.10
2018-11-28T05:17:03.053Z,24.80
2018-11-28T05:18:03.046Z,24.50
2018-11-28T05:19:03.049Z,26.30
2018-11-28T05:20:03.023Z,27.80
2018-11-28T05:21:03.048Z,26.40
2018-11-28T05:22:03.001Z,26.80
2018-11-28T05:23:02.991Z,27.50
2018-11-28T05:24:03.011Z,27.30
2018-11-28T05:25:02.970Z,27.20
2018-11-28T05:26:02.979Z,28.20
2018-11-28T05:27:02.955Z,27.00
2018-11-28T05:28:02.939Z,27.40
2018-11-28T05:29:02.933Z,28.70
2018-11-28T05:30:02.988Z,28.40
2018-11-28T05:31:02.908Z,29.00
2018-11-28T05:32:02.897Z,28.40
2018-11-28T05:33:02.901Z,29.30
2018-11-28T05:34:02.879Z,28.80
2018-11-28T05:35:02.879Z,28.60
2018-11-28T05:36:02.863Z,29.10
2018-11-28T05:37:02.850Z,30.00
2018-11-28T05:38:02.837Z,29.60
2018-11-28T05:39:02.825Z,29.40
2018-11-28T05:40:02.853Z,29.40
2018-11-28T05:41:02.805Z,29.00
2018-11-28T05:42:02.798Z,30.10
2018-11-28T05:43:02.788Z,30.20
2018-11-28T05:44:02.777Z,30.70
2018-11-28T05:45:02.777Z,28.90
2018-11-28T05:46:02.764Z,30.30
2018-11-28T05:47:02.743Z,30.60
2018-11-28T05:48:02.736Z,29.90
2018-11-28T05:49:02.728Z,29.40
2018-11-28T05:50:02.712Z,29.90
2018-11-28T05:51:02.728Z,31.10
2018-11-28T05:52:02.691Z,30.30
2018-11-28T05:53:02.680Z,32.70
2018-11-28T05:54:02.670Z,31.60
2018-11-28T05:55:02.672Z,30.60
2018-11-28T05:56:02.686Z,32.30
2018-11-28T05:57:02.643Z,30.10
2018-11-28T05:58:02.627Z,31.40
2018-11-28T05:59:03.498Z,32.90
2018-11-28T06:00:02.644Z,32.30
2018-11-28T06:01:02.612Z,33.30
2018-11-28T06:02:02.591Z,36.30
2018-11-28T06:03:02.578Z,31.50
2018-11-28T06:04:02.623Z,34.10
2018-11-28T06:05:02.556Z,33.30
2018-11-28T06:06:02.561Z,35.00
2018-11-28T06:07:02.534Z,37.80
2018-11-28T06:08:02.523Z,35.00
2018-11-28T06:09:05.556Z,36.70
2018-11-28T06:10:02.516Z,35.60
2018-11-28T06:11:02.516Z,35.60
2018-11-28T06:12:02.483Z,37.40
2018-11-28T06:13:02.473Z,37.70
2018-11-28T06:14:02.467Z,36.10
2018-11-28T06:15:02.457Z,33.80
2018-11-28T06:16:02.463Z,32.40
2018-11-28T06:17:02.458Z,38.00
2018-11-28T06:18:02.420Z,37.20
2018-11-28T06:19:02.409Z,34.30
2018-11-28T06:20:02.397Z,36.00
2018-11-28T06:21:02.426Z,36.90
2018-11-28T06:22:02.406Z,35.00
2018-11-28T06:23:02.368Z,33.90
2018-11-28T06:24:02.355Z,35.20
2018-11-28T06:25:02.348Z,34.20
2018-11-28T06:26:02.347Z,35.20
2018-11-28T06:27:02.332Z,36.00
2018-11-28T06:28:02.324Z,35.80
2018-11-28T06:29:02.317Z,35.00
2018-11-28T06:30:02.298Z,36.50
2018-11-28T06:31:02.298Z,34.60
2018-11-28T06:32:02.283Z,34.40
2018-11-28T06:33:02.269Z,36.20
2018-11-28T06:34:02.252Z,34.00
2018-11-28T06:35:02.241Z,34.90
2018-11-28T06:36:02.244Z,34.70
2018-11-28T06:37:02.226Z,34.70
2018-11-28T06:38:02.213Z,34.60
2018-11-28T06:39:02.208Z,34.80
2018-11-28T06:40:02.192Z,36.30
2018-11-28T06:41:02.198Z,35.40
2018-11-28T06:42:02.183Z,35.20
2018-11-28T06:43:02.160Z,36.00
2018-11-28T06:44:02.150Z,35.20
2018-11-28T06:45:02.151Z,35.60
2018-11-28T06:46:02.143Z,34.30
2018-11-28T06:47:02.119Z,34.80
2018-11-28T06:48:02.122Z,36.50
2018-11-28T06:49:02.110Z,37.70
2018-11-28T06:50:02.176Z,34.60
2018-11-28T06:51:02.169Z,37.20
2018-11-28T06:52:02.076Z,35.40
2018-11-28T06:53:02.061Z,36.20
2018-11-28T06:54:02.043Z,37.10
2018-11-28T06:55:02.033Z,38.10
2018-11-28T06:56:02.087Z,36.00
2018-11-28T06:57:02.027Z,36.10
2018-11-28T06:58:02.007Z,35.60
2018-11-28T06:59:01.996Z,34.40
2018-11-28T07:00:02.000Z,34.10
2018-11-28T07:01:01.970Z,35.70
2018-11-28T07:02:01.992Z,34.50
2018-11-28T07:03:01.973Z,34.70
2018-11-28T07:04:01.943Z,34.00
2018-11-28T07:05:01.933Z,33.90
2018-11-28T07:06:02.868Z,32.50
2018-11-28T07:07:01.937Z,32.50
2018-11-28T07:08:01.938Z,32.50
2018-11-28T07:09:01.893Z,31.60
2018-11-28T07:10:01.882Z,29.70
2018-11-28T07:11:01.867Z,31.10
2018-11-28T07:12:01.859Z,30.50
2018-11-28T07:13:01.861Z,30.80
2018-11-28T07:14:01.838Z,30.50
2018-11-28T07:15:01.829Z,30.90
2018-11-28T07:16:01.816Z,31.80
2018-11-28T07:17:01.808Z,29.90
2018-11-28T07:18:01.808Z,30.30
2018-11-28T07:19:01.825Z,29.40
2018-11-28T07:20:01.796Z,29.30
2018-11-28T07:21:01.774Z,29.30
2018-11-28T07:22:01.762Z,30.10
2018-11-28T07:23:01.783Z,29.10
2018-11-28T07:24:01.737Z,28.40
2018-11-28T07:25:01.727Z,29.40
2018-11-28T07:26:01.736Z,27.80
2018-11-28T07:27:01.702Z,28.70
2018-11-28T07:28:01.707Z,28.50
2018-11-28T07:29:01.680Z,28.00
2018-11-28T07:30:01.680Z,28.30
2018-11-28T07:31:01.661Z,27.50
2018-11-28T07:32:01.647Z,28.60
2018-11-28T07:33:01.655Z,27.70
2018-11-28T07:34:01.631Z,28.70
2018-11-28T07:35:01.618Z,27.80
2018-11-28T07:36:01.608Z,28.90
2018-11-28T07:37:01.598Z,29.30
2018-11-28T07:38:01.620Z,29.10
2018-11-28T07:39:01.578Z,29.60
2018-11-28T07:40:01.563Z,28.20
2018-11-28T07:41:01.560Z,28.30
2018-11-28T07:42:01.547Z,28.70
2018-11-28T07:43:01.543Z,29.00
2018-11-28T07:44:01.525Z,28.50
2018-11-28T07:45:01.534Z,27.80
2018-11-28T07:46:01.501Z,27.80
2018-11-28T07:47:01.490Z,28.80
2018-11-28T07:48:01.493Z,28.20
2018-11-28T07:49:01.481Z,28.50
2018-11-28T07:50:01.460Z,27.50
2018-11-28T07:51:01.465Z,27.00
2018-11-28T07:52:01.436Z,27.60
2018-11-28T07:53:01.474Z,27.90
2018-11-28T07:54:01.434Z,27.10
2018-11-28T07:55:01.408Z,26.20
2018-11-28T07:56:01.403Z,25.40
2018-11-28T07:57:01.389Z,25.30
2018-11-28T07:58:01.416Z,23.90
2018-11-28T07:59:01.422Z,24.40
2018-11-28T08:00:01.363Z,23.30
2018-11-28T08:01:01.348Z,24.10
2018-11-28T08:02:01.334Z,22.90
2018-11-28T08:03:01.333Z,23.40
2018-11-28T08:04:01.401Z,22.80
2018-11-28T08:05:01.417Z,22.70
2018-11-28T08:06:01.292Z,23.60
2018-11-28T08:07:01.289Z,23.70
2018-11-28T08:08:01.289Z,22.40
2018-11-28T08:09:01.281Z,21.70
2018-11-28T08:10:01.272Z,22.60
2018-11-28T08:11:01.261Z,22.90
2018-11-28T08:12:01.236Z,21.40
2018-11-28T08:13:01.219Z,22.20
2018-11-28T08:14:01.223Z,21.30
2018-11-28T08:15:01.197Z,21.90
2018-11-28T08:16:01.187Z,21.80
2018-11-28T08:17:01.183Z,22.50
2018-11-28T08:18:01.171Z,22.30
2018-11-28T08:19:01.170Z,22.70
2018-11-28T08:20:01.147Z,22.20
2018-11-28T08:21:01.136Z,21.40
2018-11-28T08:22:01.199Z,21.40
2018-11-28T08:23:01.129Z,22.30
2018-11-28T08:24:01.119Z,21.00
2018-11-28T08:25:01.097Z,20.50
2018-11-28T08:26:01.088Z,20.50
2018-11-28T08:27:01.122Z,20.30
2018-11-28T08:28:01.061Z,21.00
2018-11-28T08:29:01.082Z,20.80
2018-11-28T08:30:01.046Z,20.50
2018-11-28T08:31:01.027Z,21.40
2018-11-28T08:32:01.040Z,19.90
2018-11-28T08:33:01.005Z,20.90
2018-11-28T08:34:00.995Z,20.60
2018-11-28T08:35:01.735Z,19.70
2018-11-28T08:36:01.118Z,19.70
2018-11-28T08:37:00.965Z,20.00
2018-11-28T08:38:01.003Z,19.00
2018-11-28T08:39:01.758Z,19.70
2018-11-28T08:40:00.951Z,20.00
2018-11-28T08:41:00.925Z,20.40
2018-11-28T08:42:00.915Z,19.80
2018-11-28T08:43:00.908Z,19.80
2018-11-28T08:44:00.891Z,18.80
2018-11-28T08:45:00.896Z,18.50
2018-11-28T08:46:00.869Z,17.70
2018-11-28T08:47:00.861Z,18.40
2018-11-28T08:48:00.846Z,18.20
2018-11-28T08:49:00.839Z,18.20
2018-11-28T08:50:00.844Z,18.40
2018-11-28T08:51:00.814Z,17.40
2018-11-28T08:52:00.808Z,17.00
2018-11-28T08:53:00.799Z,17.30
2018-11-28T08:54:00.788Z,17.50
2018-11-28T08:55:00.829Z,18.00
2018-11-28T08:56:00.766Z,17.40
2018-11-28T08:57:00.799Z,16.50
2018-11-28T08:58:00.756Z,16.50
2018-11-28T08:59:00.733Z,16.10
2018-11-28T09:00:00.807Z,15.90
2018-11-28T09:01:00.745Z,15.40
2018-11-28T09:02:00.706Z,15.50
2018-11-28T09:03:00.716Z,15.50
2018-11-28T09:04:00.727Z,15.50
2018-11-28T09:05:00.682Z,16.10
2018-11-28T09:06:00.674Z,15.20
2018-11-28T09:07:00.650Z,14.90
2018-11-28T09:08:00.635Z,15.20
2018-11-28T09:09:00.625Z,15.40
2018-11-28T09:10:00.658Z,14.80
2018-11-28T09:11:00.632Z,14.40
2018-11-28T09:12:00.610Z,14.40
2018-11-28T09:13:04.217Z,14.80
2018-11-28T09:14:04.465Z,14.30
2018-11-28T09:15:00.562Z,15.10
2018-11-28T09:16:00.596Z,14.10
2018-11-28T09:17:00.546Z,14.70
2018-11-28T09:18:00.555Z,13.50
2018-11-28T09:19:00.517Z,13.90
2018-11-28T09:20:00.509Z,13.50
2018-11-28T09:21:00.521Z,12.90
2018-11-28T09:22:00.506Z,13.10
2018-11-28T09:23:00.490Z,13.20
2018-11-28T09:24:00.481Z,12.60
2018-11-28T09:25:00.457Z,11.80
2018-11-28T09:26:00.457Z,11.60
2018-11-28T09:27:00.437Z,11.90
2018-11-28T09:28:00.428Z,11.70
2018-11-28T09:29:00.429Z,11.80
2018-11-28T09:30:00.406Z,11.70
2018-11-28T09:31:00.406Z,11.50
2018-11-28T09:32:00.384Z,11.00
2018-11-28T09:33:00.369Z,10.90
2018-11-28T09:34:00.358Z,11.50
2018-11-28T09:35:00.355Z,10.40
2018-11-28T09:36:00.374Z,10.60
2018-11-28T09:37:00.330Z,11.00
2018-11-28T09:38:00.318Z,11.10
2018-11-28T09:39:00.307Z,11.70
2018-11-28T09:40:00.308Z,11.50
2018-11-28T09:41:00.294Z,11.00
2018-11-28T09:42:00.297Z,11.30
2018-11-28T09:43:00.267Z,11.40
2018-11-28T09:44:00.262Z,10.60
2018-11-28T09:45:00.243Z,11.80
2018-11-28T09:46:00.231Z,10.80
2018-11-28T09:47:00.237Z,11.20
2018-11-28T09:48:00.220Z,11.10
2018-11-28T09:49:00.205Z,11.10
2018-11-28T09:50:00.237Z,10.90
2018-11-28T09:51:00.180Z,11.10
2018-11-28T09:52:00.179Z,10.80
2018-11-28T09:53:00.175Z,10.20
2018-11-28T09:54:00.154Z,11.50
2018-11-28T09:55:00.138Z,11.20
2018-11-28T09:56:00.129Z,11.10
2018-11-28T09:57:00.148Z,10.30
2018-11-28T09:58:00.107Z,10.50
2018-11-28T09:59:00.108Z,10.90
2018-11-28T10:00:00.083Z,10.90
2018-11-28T10:01:00.077Z,11.00
2018-11-28T10:02:00.063Z,10.40
2018-11-28T10:03:00.072Z,11.40
2018-11-28T10:04:00.041Z,11.40
2018-11-28T10:05:02.713Z,10.90
2018-11-28T10:06:00.025Z,11.50
2018-11-28T10:07:00.022Z,10.90
2018-11-28T10:08:00.016Z,11.40
2018-11-28T10:08:59.996Z,10.00
2018-11-28T10:10:00.008Z,10.60
2018-11-28T10:10:59.970Z,11.40
2018-11-28T10:11:59.976Z,10.80
2018-11-28T10:12:59.963Z,10.50
2018-11-28T10:13:59.943Z,10.60
2018-11-28T10:14:59.931Z,10.90
2018-11-28T10:16:01.248Z,10.00
2018-11-28T10:16:59.904Z,11.20
2018-11-28T10:17:59.909Z,10.40
2018-11-28T10:18:59.886Z,11.10
2018-11-28T10:19:59.874Z,10.50
2018-11-28T10:20:59.864Z,10.70
2018-11-28T10:21:59.859Z,10.90
2018-11-28T10:22:59.853Z,10.20
2018-11-28T10:23:59.833Z,10.70
2018-11-28T10:24:59.821Z,10.70
2018-11-28T10:25:59.849Z,10.50
2018-11-28T10:26:59.797Z,11.30
2018-11-28T10:27:59.802Z,10.00
2018-11-28T10:28:59.779Z,9.70
2018-11-28T10:29:59.778Z,10.80
2018-11-28T10:30:59.755Z,10.70
2018-11-28T10:31:59.760Z,9.70
2018-11-28T10:32:59.784Z,9.40
2018-11-28T10:33:59.725Z,9.70
2018-11-28T10:34:59.717Z,9.80
2018-11-28T10:35:59.710Z,9.50
2018-11-28T10:36:59.705Z,9.60
2018-11-28T10:37:59.692Z,8.60
2018-11-28T10:38:59.685Z,8.00
2018-11-28T10:39:59.664Z,7.80
2018-11-28T10:40:59.674Z,7.50
2018-11-28T10:41:59.640Z,7.80
2018-11-28T10:42:59.640Z,7.50
2018-11-28T10:43:59.631Z,7.60
2018-11-28T10:44:59.615Z,7.10
2018-11-28T10:45:59.601Z,7.90
2018-11-28T10:46:59.588Z,7.30
2018-11-28T10:47:59.584Z,7.60
2018-11-28T10:48:59.596Z,7.60
2018-11-28T10:49:59.560Z,8.10
2018-11-28T10:50:59.543Z,7.70
2018-11-28T10:52:00.316Z,7.80
2018-11-28T10:52:59.560Z,8.20
2018-11-28T10:53:59.528Z,7.70
2018-11-28T10:54:59.512Z,7.50
2018-11-28T10:55:59.493Z,7.30
2018-11-28T10:56:59.505Z,7.40
2018-11-28T10:57:59.476Z,7.30
2018-11-28T10:58:59.466Z,7.10
2018-11-28T10:59:59.471Z,7.10
2018-11-28T11:00:59.458Z,6.80
2018-11-28T11:01:59.432Z,7.00
2018-11-28T11:02:59.420Z,7.30
2018-11-28T11:03:59.408Z,7.50
2018-11-28T11:04:59.439Z,7.60
2018-11-28T11:05:59.388Z,8.00
2018-11-28T11:06:59.378Z,7.70
2018-11-28T11:07:59.367Z,7.50
2018-11-28T11:08:59.359Z,7.50
2018-11-28T11:09:59.359Z,7.70
2018-11-28T11:10:59.362Z,7.40
2018-11-28T11:11:59.335Z,7.10
2018-11-28T11:12:59.312Z,7.00
2018-11-28T11:13:59.339Z,7.40
2018-11-28T11:14:59.289Z,7.40
2018-11-28T11:15:59.290Z,7.40
2018-11-28T11:16:59.278Z,7.60
2018-11-28T11:18:02.083Z,7.40
2018-11-28T11:18:59.257Z,8.30
2018-11-28T11:19:59.247Z,8.10
2018-11-28T11:20:59.251Z,7.90
2018-11-28T11:21:59.218Z,7.60
2018-11-28T11:22:59.216Z,7.90
2018-11-28T11:23:59.197Z,8.10
2018-11-28T11:24:59.198Z,8.20
2018-11-28T11:25:59.186Z,7.30
2018-11-28T11:26:59.199Z,8.00
2018-11-28T11:27:59.161Z,7.80
2018-11-28T11:28:59.148Z,7.60
2018-11-28T11:29:59.190Z,7.60
2018-11-28T11:30:59.133Z,7.60
2018-11-28T11:31:59.107Z,8.10
2018-11-28T11:32:59.097Z,8.20
2018-11-28T11:33:59.086Z,7.90
2018-11-28T11:34:59.078Z,7.90
2018-11-28T11:35:59.076Z,7.90
2018-11-28T11:36:59.053Z,7.40
2018-11-28T11:37:59.044Z,7.50
2018-11-28T11:38:59.036Z,7.60
2018-11-28T11:39:59.025Z,7.30
2018-11-28T11:40:59.029Z,7.20
2018-11-28T11:41:59.006Z,7.30
2018-11-28T11:42:58.998Z,7.40
2018-11-28T11:43:58.979Z,7.10
2018-11-28T11:44:58.969Z,7.50
2018-11-28T11:45:58.970Z,7.70
2018-11-28T11:46:58.973Z,7.60
2018-11-28T11:47:58.944Z,7.00
2018-11-28T11:48:58.931Z,7.30
2018-11-28T11:49:58.925Z,7.50
2018-11-28T11:50:58.922Z,7.40
2018-11-28T11:51:58.894Z,7.20
2018-11-28T11:52:58.893Z,7.40
2018-11-28T11:53:58.873Z,7.40
2018-11-28T11:54:58.867Z,7.40
2018-11-28T11:55:58.890Z,7.70
2018-11-28T11:56:58.903Z,7.70
2018-11-28T11:57:58.836Z,7.40
2018-11-28T11:58:58.856Z,7.20
2018-11-28T11:59:58.814Z,7.60
2018-11-28T12:00:58.837Z,7.60
2018-11-28T12:01:58.837Z,7.50
2018-11-28T12:02:58.779Z,7.40
2018-11-28T12:03:59.163Z,7.30
2018-11-28T12:04:58.830Z,7.10
2018-11-28T12:05:58.767Z,7.10
2018-11-28T12:06:58.786Z,7.20
2018-11-28T12:07:58.744Z,7.30
2018-11-28T12:08:58.735Z,7.50
2018-11-28T12:09:58.734Z,7.70
2018-11-28T12:10:58.742Z,7.10
2018-11-28T12:11:58.748Z,7.20
2018-11-28T12:12:58.704Z,7.40
2018-11-28T12:13:58.678Z,7.50
2018-11-28T12:14:58.678Z,7.10
2018-11-28T12:15:58.667Z,7.30
2018-11-28T12:16:58.680Z,7.30
2018-11-28T12:17:58.623Z,7.30
2018-11-28T12:18:58.652Z,7.40
2018-11-28T12:19:58.610Z,7.80
2018-11-28T12:20:58.627Z,7.90
2018-11-28T12:21:58.653Z,7.60
2018-11-28T12:22:58.591Z,8.00
2018-11-28T12:23:58.593Z,7.40
2018-11-28T12:24:58.567Z,8.10
2018-11-28T12:25:58.564Z,7.80
2018-11-28T12:26:58.546Z,7.80
2018-11-28T12:27:58.540Z,7.40
2018-11-28T12:28:58.505Z,7.40
2018-11-28T12:29:58.498Z,7.20
2018-11-28T12:30:58.481Z,7.20
2018-11-28T12:31:58.480Z,7.50
2018-11-28T12:32:58.482Z,7.10
2018-11-28T12:33:58.467Z,7.50
2018-11-28T12:34:58.438Z,8.20
2018-11-28T12:35:58.428Z,7.60
2018-11-28T12:36:58.434Z,7.60
2018-11-28T12:37:58.423Z,7.80
2018-11-28T12:38:58.408Z,7.70
2018-11-28T12:39:58.413Z,7.90
2018-11-28T12:40:58.469Z,8.00
2018-11-28T12:41:58.387Z,8.60
2018-11-28T12:42:58.383Z,7.50
2018-11-28T12:43:58.361Z,8.10
2018-11-28T12:44:58.364Z,8.00
2018-11-28T12:45:58.334Z,8.00
2018-11-28T12:46:58.339Z,8.60
2018-11-28T12:47:58.315Z,7.70
2018-11-28T12:48:58.294Z,7.90
2018-11-28T12:49:58.289Z,7.80
2018-11-28T12:50:58.284Z,8.00
2018-11-28T12:51:58.261Z,7.80
2018-11-28T12:52:58.313Z,8.20
2018-11-28T12:53:58.278Z,8.10
2018-11-28T12:54:58.231Z,7.30
2018-11-28T12:55:58.231Z,7.90
2018-11-28T12:56:58.221Z,7.60
2018-11-28T12:57:58.217Z,7.40